createdAt,value
2017-04-02T00:00:37.177Z,22.28
2017-04-02T00:01:46.239Z,22.23
2017-04-02T00:02:54.998Z,22.28
2017-04-02T00:04:04.063Z,22.26
2017-04-02T00:05:12.787Z,22.23
2017-04-02T00:06:21.524Z,22.25
2017-04-02T00:07:30.587Z,22.2
2017-04-02T00:08:39.346Z,22.17
2017-04-02T00:09:48.422Z,22.25
2017-04-02T00:10:57.175Z,22.29
2017-04-02T00:12:05.929Z,22.18
2017-04-02T00:13:14.689Z,22.22
2017-04-02T00:14:23.452Z,22.15
2017-04-02T00:15:32.319Z,22.17
2017-04-02T00:16:41.082Z,22.15
2017-04-02T00:17:50.147Z,22.18
2017-04-02T00:18:58.912Z,22.14
2017-04-02T00:20:08.290Z,22.17
2017-04-02T00:21:17.322Z,22.14
2017-04-02T00:22:26.071Z,22.17
2017-04-02T00:23:35.150Z,22.2
2017-04-02T00:24:43.871Z,22.17
2017-04-02T00:25:52.606Z,22.17
2017-04-02T00:27:01.363Z,22.13
2017-04-02T00:28:10.129Z,22.15
2017-04-02T00:29:18.851Z,22.18
2017-04-02T00:30:28.156Z,22.17
2017-04-02T00:31:36.892Z,22.15
2017-04-02T00:32:46.161Z,22.14
2017-04-02T00:33:54.925Z,22.17
2017-04-02T00:35:03.958Z,22.18
2017-04-02T00:36:12.691Z,22.18
2017-04-02T00:37:21.459Z,22.11
2017-04-02T00:38:30.187Z,22.2
2017-04-02T00:39:38.923Z,22.17
2017-04-02T00:40:47.989Z,22.17
2017-04-02T00:41:56.705Z,22.13
2017-04-02T00:43:05.398Z,22.18
2017-04-02T00:44:14.133Z,22.15
2017-04-02T00:45:22.901Z,22.14
2017-04-02T00:46:31.664Z,22.14
2017-04-02T00:47:40.726Z,22.11
2017-04-02T00:48:49.490Z,22.1
2017-04-02T00:49:58.523Z,22.11
2017-04-02T00:51:07.268Z,22.07
2017-04-02T00:52:16.310Z,22.08
2017-04-02T00:53:25.075Z,22.07
2017-04-02T00:54:33.802Z,22.08
2017-04-02T00:55:42.503Z,22.06
2017-04-02T00:56:51.531Z,22.07
2017-04-02T00:58:00.593Z,22.07
2017-04-02T00:59:09.346Z,22.06
2017-04-02T01:00:18.105Z,22.04
2017-04-02T01:01:26.867Z,22.07
2017-04-02T01:02:35.636Z,22.04
2017-04-02T01:03:44.496Z,21.99
2017-04-02T01:04:53.253Z,22.1
2017-04-02T01:06:02.029Z,21.99
2017-04-02T01:07:10.798Z,21.93
2017-04-02T01:08:19.869Z,22.02
2017-04-02T01:09:28.639Z,21.93
2017-04-02T01:10:37.709Z,21.95
2017-04-02T01:11:46.774Z,21.98
2017-04-02T01:12:55.839Z,21.98
2017-04-02T01:14:04.601Z,22.02
2017-04-02T01:15:13.364Z,21.99
2017-04-02T01:16:22.129Z,21.96
2017-04-02T01:17:30.847Z,22
2017-04-02T01:18:39.616Z,21.95
2017-04-02T01:19:48.351Z,21.99
2017-04-02T01:20:57.114Z,21.98
2017-04-02T01:22:06.482Z,21.93
2017-04-02T01:23:15.885Z,21.91
2017-04-02T01:24:24.606Z,21.91
2017-04-02T01:25:33.344Z,21.93
2017-04-02T01:26:42.436Z,21.96
2017-04-02T01:27:51.191Z,21.89
2017-04-02T01:29:00.219Z,21.95
2017-04-02T01:30:08.949Z,21.88
2017-04-02T01:31:17.669Z,21.91
2017-04-02T01:32:26.363Z,21.85
2017-04-02T01:33:35.057Z,21.93
2017-04-02T01:34:43.792Z,21.89
2017-04-02T01:35:52.560Z,21.91
2017-04-02T01:37:01.591Z,21.92
2017-04-02T01:38:10.327Z,21.89
2017-04-02T01:39:19.091Z,21.89
2017-04-02T01:40:27.859Z,21.85
2017-04-02T01:41:36.614Z,21.88
2017-04-02T01:42:45.374Z,21.91
2017-04-02T01:43:54.128Z,21.91
2017-04-02T01:45:02.857Z,21.88
2017-04-02T01:46:11.901Z,21.85
2017-04-02T01:47:20.617Z,21.88
2017-04-02T01:48:29.346Z,21.91
2017-04-02T01:49:38.406Z,21.92
2017-04-02T01:50:47.170Z,21.88
2017-04-02T01:51:55.936Z,21.92
2017-04-02T01:53:04.695Z,21.8
2017-04-02T01:54:13.392Z,21.83
2017-04-02T01:55:22.129Z,21.79
2017-04-02T01:56:31.215Z,21.82
2017-04-02T01:57:39.974Z,21.82
2017-04-02T01:58:48.738Z,21.77
2017-04-02T01:59:57.510Z,21.8
2017-04-02T02:01:06.589Z,21.75
2017-04-02T02:02:15.310Z,21.76
2017-04-02T02:03:24.061Z,21.72
2017-04-02T02:04:33.129Z,21.73
2017-04-02T02:05:41.897Z,21.69
2017-04-02T02:06:50.662Z,21.79
2017-04-02T02:07:59.695Z,21.72
2017-04-02T02:09:08.424Z,21.72
2017-04-02T02:10:17.143Z,21.7
2017-04-02T02:11:25.874Z,21.72
2017-04-02T02:12:34.639Z,21.73
2017-04-02T02:13:43.397Z,21.75
2017-04-02T02:14:52.147Z,21.76
2017-04-02T02:16:00.863Z,21.73
2017-04-02T02:17:09.597Z,21.76
2017-04-02T02:18:18.356Z,21.72
2017-04-02T02:19:27.122Z,21.67
2017-04-02T02:20:35.882Z,21.7
2017-04-02T02:21:44.945Z,21.69
2017-04-02T02:22:53.706Z,21.69
2017-04-02T02:24:02.776Z,21.69
2017-04-02T02:25:11.542Z,21.67
2017-04-02T02:26:20.300Z,21.69
2017-04-02T02:27:29.366Z,21.72
2017-04-02T02:28:38.426Z,21.72
2017-04-02T02:29:47.184Z,21.72
2017-04-02T02:30:56.255Z,21.75
2017-04-02T02:32:05.055Z,21.73
2017-04-02T02:33:13.816Z,21.76
2017-04-02T02:34:22.891Z,21.7
2017-04-02T02:35:31.944Z,21.7
2017-04-02T02:36:41.002Z,21.73
2017-04-02T02:37:49.764Z,21.72
2017-04-02T02:38:58.530Z,21.69
2017-04-02T02:40:07.287Z,21.66
2017-04-02T02:41:16.047Z,21.66
2017-04-02T02:42:25.106Z,21.6
2017-04-02T02:43:33.875Z,21.62
2017-04-02T02:44:42.641Z,21.6
2017-04-02T02:45:51.403Z,21.6
2017-04-02T02:47:00.183Z,21.6
2017-04-02T02:48:08.985Z,21.62
2017-04-02T02:49:17.749Z,21.55
2017-04-02T02:50:26.811Z,21.6
2017-04-02T02:51:36.176Z,21.62
2017-04-02T02:52:44.908Z,21.58
2017-04-02T02:53:53.639Z,21.66
2017-04-02T02:55:02.391Z,21.62
2017-04-02T02:56:11.162Z,21.62
2017-04-02T02:57:19.920Z,21.58
2017-04-02T02:58:28.659Z,21.57
2017-04-02T02:59:37.699Z,21.58
2017-04-02T03:00:46.456Z,21.58
2017-04-02T03:01:55.223Z,21.58
2017-04-02T03:03:04.254Z,21.62
2017-04-02T03:04:13.290Z,21.52
2017-04-02T03:05:22.022Z,21.58
2017-04-02T03:06:30.739Z,21.57
2017-04-02T03:07:39.468Z,21.5
2017-04-02T03:08:48.228Z,21.5
2017-04-02T03:09:56.987Z,21.6
2017-04-02T03:11:05.746Z,21.55
2017-04-02T03:12:14.803Z,21.5
2017-04-02T03:13:23.869Z,21.51
2017-04-02T03:14:32.918Z,21.52
2017-04-02T03:15:41.987Z,21.52
2017-04-02T03:16:50.715Z,21.57
2017-04-02T03:17:59.773Z,21.51
2017-04-02T03:19:08.540Z,21.51
2017-04-02T03:20:17.300Z,21.55
2017-04-02T03:21:26.019Z,21.43
2017-04-02T03:22:35.049Z,21.48
2017-04-02T03:23:43.802Z,21.45
2017-04-02T03:24:52.557Z,21.45
2017-04-02T03:26:01.314Z,21.46
2017-04-02T03:27:10.019Z,21.42
2017-04-02T03:28:18.750Z,21.51
2017-04-02T03:29:27.515Z,21.43
2017-04-02T03:30:36.477Z,21.46
2017-04-02T03:31:45.536Z,21.46
2017-04-02T03:32:54.300Z,21.46
2017-04-02T03:34:03.021Z,21.39
2017-04-02T03:35:11.944Z,21.39
2017-04-02T03:36:21.013Z,21.43
2017-04-02T03:37:29.973Z,21.39
2017-04-02T03:38:38.733Z,21.39
2017-04-02T03:39:47.724Z,21.46
2017-04-02T03:40:56.791Z,21.39
2017-04-02T03:42:05.514Z,21.43
2017-04-02T03:43:14.248Z,21.43
2017-04-02T03:44:23.608Z,21.4
2017-04-02T03:45:32.369Z,21.43
2017-04-02T03:46:41.435Z,21.39
2017-04-02T03:47:50.191Z,21.43
2017-04-02T03:48:58.957Z,21.43
2017-04-02T03:50:08.021Z,21.4
2017-04-02T03:51:17.081Z,21.39
2017-04-02T03:52:25.832Z,21.36
2017-04-02T03:53:34.948Z,21.36
2017-04-02T03:54:43.643Z,21.42
2017-04-02T03:55:52.409Z,21.43
2017-04-02T03:57:01.171Z,21.42
2017-04-02T03:58:10.540Z,21.45
2017-04-02T03:59:19.327Z,21.42
2017-04-02T04:00:28.391Z,21.4
2017-04-02T04:01:37.439Z,21.4
2017-04-02T04:02:46.170Z,21.45
2017-04-02T04:03:54.893Z,21.45
2017-04-02T04:05:03.965Z,21.4
2017-04-02T04:06:12.729Z,21.43
2017-04-02T04:07:21.501Z,21.4
2017-04-02T04:08:30.408Z,21.42
2017-04-02T04:09:39.170Z,21.37
2017-04-02T04:10:47.936Z,21.37
2017-04-02T04:11:56.660Z,21.4
2017-04-02T04:13:05.397Z,21.46
2017-04-02T04:14:14.124Z,21.37
2017-04-02T04:15:22.851Z,21.37
2017-04-02T04:16:31.913Z,21.4
2017-04-02T04:17:40.973Z,21.45
2017-04-02T04:18:49.731Z,21.46
2017-04-02T04:19:58.496Z,21.5
2017-04-02T04:21:07.567Z,21.4
2017-04-02T04:22:16.331Z,21.5
2017-04-02T04:23:25.355Z,21.51
2017-04-02T04:24:34.083Z,21.48
2017-04-02T04:25:42.797Z,21.43
2017-04-02T04:26:51.532Z,21.51
2017-04-02T04:28:00.598Z,21.5
2017-04-02T04:29:09.355Z,21.52
2017-04-02T04:30:18.387Z,21.43
2017-04-02T04:31:27.075Z,21.48
2017-04-02T04:32:35.801Z,21.57
2017-04-02T04:33:45.020Z,21.48
2017-04-02T04:34:53.727Z,21.54
2017-04-02T04:36:02.794Z,21.67
2017-04-02T04:37:11.902Z,21.57
2017-04-02T04:38:21.268Z,21.55
2017-04-02T04:39:30.033Z,21.58
2017-04-02T04:40:38.792Z,21.6
2017-04-02T04:41:47.553Z,21.58
2017-04-02T04:42:56.311Z,21.6
2017-04-02T04:44:05.376Z,21.58
2017-04-02T04:45:14.444Z,21.61
2017-04-02T04:46:23.207Z,21.61
2017-04-02T04:47:32.007Z,21.61
2017-04-02T04:48:40.770Z,21.61
2017-04-02T04:49:49.573Z,21.6
2017-04-02T04:50:58.875Z,21.61
2017-04-02T04:52:07.635Z,21.58
2017-04-02T04:53:16.734Z,21.58
2017-04-02T04:54:25.489Z,21.61
2017-04-02T04:55:34.556Z,21.6
2017-04-02T04:56:43.626Z,21.64
2017-04-02T04:57:52.595Z,21.55
2017-04-02T04:59:01.359Z,21.58
2017-04-02T05:00:10.118Z,21.64
2017-04-02T05:01:19.177Z,21.57
2017-04-02T05:02:27.880Z,21.66
2017-04-02T05:03:36.906Z,21.64
2017-04-02T05:04:45.662Z,21.6
2017-04-02T05:05:54.689Z,21.7
2017-04-02T05:07:03.390Z,21.64
2017-04-02T05:08:12.120Z,21.64
2017-04-02T05:09:20.850Z,21.6
2017-04-02T05:10:29.614Z,21.69
2017-04-02T05:11:38.671Z,21.61
2017-04-02T05:12:47.427Z,21.62
2017-04-02T05:13:56.180Z,21.69
2017-04-02T05:15:05.249Z,21.79
2017-04-02T05:16:14.011Z,21.73
2017-04-02T05:17:22.815Z,21.66
2017-04-02T05:18:31.871Z,21.79
2017-04-02T05:19:40.934Z,21.73
2017-04-02T05:20:49.697Z,21.67
2017-04-02T05:21:58.755Z,21.67
2017-04-02T05:23:08.018Z,21.69
2017-04-02T05:24:17.389Z,21.8
2017-04-02T05:25:26.458Z,21.66
2017-04-02T05:26:35.215Z,21.72
2017-04-02T05:27:44.295Z,21.76
2017-04-02T05:28:53.056Z,21.72
2017-04-02T05:30:02.118Z,21.79
2017-04-02T05:31:11.181Z,21.8
2017-04-02T05:32:19.947Z,21.72
2017-04-02T05:33:29.271Z,21.67
2017-04-02T05:34:38.104Z,21.69
2017-04-02T05:35:47.163Z,21.69
2017-04-02T05:36:55.929Z,21.72
2017-04-02T05:38:04.702Z,21.72
2017-04-02T05:39:13.460Z,21.85
2017-04-02T05:40:22.218Z,21.85
2017-04-02T05:41:30.976Z,21.76
2017-04-02T05:42:39.720Z,21.88
2017-04-02T05:43:48.476Z,21.79
2017-04-02T05:44:57.233Z,21.8
2017-04-02T05:46:06.026Z,21.88
2017-04-02T05:47:14.787Z,21.8
2017-04-02T05:48:23.561Z,21.8
2017-04-02T05:49:32.328Z,21.85
2017-04-02T05:50:41.053Z,21.89
2017-04-02T05:51:49.770Z,21.83
2017-04-02T05:52:58.840Z,21.88
2017-04-02T05:54:07.600Z,21.85
2017-04-02T05:55:16.347Z,21.88
2017-04-02T05:56:25.454Z,21.88
2017-04-02T05:57:34.215Z,21.96
2017-04-02T05:58:42.969Z,21.92
2017-04-02T05:59:51.737Z,21.88
2017-04-02T06:01:00.504Z,21.92
2017-04-02T06:02:09.273Z,21.98
2017-04-02T06:03:18.087Z,21.96
2017-04-02T06:04:26.846Z,21.88
2017-04-02T06:05:35.694Z,21.95
2017-04-02T06:06:44.427Z,21.95
2017-04-02T06:07:53.192Z,21.92
2017-04-02T06:09:01.915Z,21.99
2017-04-02T06:10:11.249Z,21.96
2017-04-02T06:11:20.056Z,22
2017-04-02T06:12:29.121Z,22.02
2017-04-02T06:13:37.882Z,22
2017-04-02T06:14:46.639Z,22.04
2017-04-02T06:15:56.005Z,21.98
2017-04-02T06:17:04.740Z,21.99
2017-04-02T06:18:13.501Z,21.99
2017-04-02T06:19:22.219Z,22.11
2017-04-02T06:20:30.920Z,22.08
2017-04-02T06:21:39.982Z,22.11
2017-04-02T06:22:49.341Z,22.14
2017-04-02T06:23:58.058Z,22.08
2017-04-02T06:25:06.800Z,22.13
2017-04-02T06:26:15.754Z,22.18
2017-04-02T06:27:24.507Z,22.07
2017-04-02T06:28:33.601Z,22.22
2017-04-02T06:29:42.336Z,22.14
2017-04-02T06:30:51.058Z,22.11
2017-04-02T06:32:00.086Z,22.11
2017-04-02T06:33:08.779Z,22.28
2017-04-02T06:34:17.712Z,22.28
2017-04-02T06:35:26.479Z,22.26
2017-04-02T06:36:35.841Z,22.17
2017-04-02T06:37:44.759Z,22.23
2017-04-02T06:38:53.486Z,22.3
2017-04-02T06:40:02.242Z,22.3
2017-04-02T06:41:11.261Z,22.29
2017-04-02T06:42:20.001Z,22.33
2017-04-02T06:43:28.743Z,22.2
2017-04-02T06:44:37.489Z,22.29
2017-04-02T06:45:46.182Z,22.3
2017-04-02T06:46:54.924Z,22.28
2017-04-02T06:48:03.675Z,22.29
2017-04-02T06:49:12.430Z,22.25
2017-04-02T06:50:21.162Z,22.3
2017-04-02T06:51:30.197Z,22.3
2017-04-02T06:52:39.218Z,22.33
2017-04-02T06:53:48.157Z,22.33
2017-04-02T06:54:56.914Z,22.3
2017-04-02T06:56:05.971Z,22.39
2017-04-02T06:57:15.332Z,22.35
2017-04-02T06:58:24.091Z,22.47
2017-04-02T06:59:32.805Z,22.45
2017-04-02T07:00:41.543Z,22.5
2017-04-02T07:01:50.312Z,22.54
2017-04-02T07:02:59.677Z,22.53
2017-04-02T07:04:08.755Z,22.62
2017-04-02T07:05:17.866Z,22.65
2017-04-02T07:06:26.626Z,22.62
2017-04-02T07:07:35.684Z,22.78
2017-04-02T07:08:44.448Z,22.69
2017-04-02T07:09:53.209Z,22.76
2017-04-02T07:11:02.231Z,22.7
2017-04-02T07:12:10.962Z,22.81
2017-04-02T07:13:19.990Z,22.76
2017-04-02T07:14:28.687Z,22.84
2017-04-02T07:15:37.722Z,22.87
2017-04-02T07:16:47.089Z,22.83
2017-04-02T07:17:55.887Z,22.98
2017-04-02T07:19:04.659Z,22.98
2017-04-02T07:20:13.928Z,22.93
2017-04-02T07:21:22.692Z,22.93
2017-04-02T07:22:31.446Z,23.02
2017-04-02T07:23:40.233Z,22.99
2017-04-02T07:24:48.958Z,22.99
2017-04-02T07:25:57.689Z,22.98
2017-04-02T07:27:06.443Z,23.12
2017-04-02T07:28:15.168Z,23.18
2017-04-02T07:29:23.897Z,23.34
2017-04-02T07:30:32.815Z,23.39
2017-04-02T07:31:41.850Z,23.48
2017-04-02T07:32:50.622Z,23.48
2017-04-02T07:33:59.621Z,23.59
2017-04-02T07:35:08.381Z,23.68
2017-04-02T07:36:17.135Z,23.69
2017-04-02T07:37:25.901Z,23.81
2017-04-02T07:38:34.664Z,23.93
2017-04-02T07:39:43.427Z,23.93
2017-04-02T07:40:52.996Z,24.02
2017-04-02T07:42:02.071Z,24.06
2017-04-02T07:43:10.830Z,24.16
2017-04-02T07:44:19.592Z,24.17
2017-04-02T07:45:28.613Z,24.33
2017-04-02T07:46:37.339Z,24.29
2017-04-02T07:47:46.110Z,24.38
2017-04-02T07:48:55.219Z,24.42
2017-04-02T07:50:04.281Z,24.47
2017-04-02T07:51:13.346Z,24.48
2017-04-02T07:52:22.110Z,24.51
2017-04-02T07:53:30.868Z,24.58
2017-04-02T07:54:39.623Z,24.57
2017-04-02T07:55:48.705Z,24.7
2017-04-02T07:56:57.466Z,24.63
2017-04-02T07:58:06.446Z,24.7
2017-04-02T07:59:15.205Z,24.69
2017-04-02T08:00:23.963Z,24.84
2017-04-02T08:01:33.037Z,24.78
2017-04-02T08:02:42.102Z,24.91
2017-04-02T08:03:50.872Z,24.91
2017-04-02T08:04:59.609Z,24.95
2017-04-02T08:06:08.367Z,24.98
2017-04-02T08:07:17.118Z,25.06
2017-04-02T08:08:26.080Z,25.04
2017-04-02T08:09:35.089Z,25.03
2017-04-02T08:10:43.817Z,25.04
2017-04-02T08:11:52.546Z,25.18
2017-04-02T08:13:01.309Z,25.17
2017-04-02T08:14:10.090Z,25.18
2017-04-02T08:15:18.813Z,25.29
2017-04-02T08:16:27.537Z,25.18
2017-04-02T08:17:36.259Z,25.28
2017-04-02T08:18:44.993Z,25.22
2017-04-02T08:19:54.057Z,25.32
2017-04-02T08:21:02.823Z,25.29
2017-04-02T08:22:11.890Z,25.28
2017-04-02T08:23:20.963Z,25.29
2017-04-02T08:24:29.727Z,25.21
2017-04-02T08:25:38.490Z,25.18
2017-04-02T08:26:47.248Z,25.21
2017-04-02T08:27:56.006Z,25.18
2017-04-02T08:29:04.766Z,25.14
2017-04-02T08:30:13.533Z,25.16
2017-04-02T08:31:22.297Z,25.23
2017-04-02T08:32:31.059Z,25.26
2017-04-02T08:33:40.224Z,25.22
2017-04-02T08:34:49.197Z,25.28
2017-04-02T08:35:57.943Z,25.23
2017-04-02T08:37:06.672Z,25.29
2017-04-02T08:38:15.726Z,25.23
2017-04-02T08:39:24.504Z,25.21
2017-04-02T08:40:33.559Z,25.23
2017-04-02T08:41:42.278Z,25.26
2017-04-02T08:42:51.006Z,25.29
2017-04-02T08:43:59.771Z,25.26
2017-04-02T08:45:08.532Z,25.33
2017-04-02T08:46:17.906Z,25.35
2017-04-02T08:47:26.669Z,25.35
2017-04-02T08:48:35.661Z,25.41
2017-04-02T08:49:44.734Z,25.43
2017-04-02T08:50:53.795Z,25.48
2017-04-02T08:52:02.864Z,25.55
2017-04-02T08:53:11.629Z,25.59
2017-04-02T08:54:20.394Z,25.58
2017-04-02T08:55:29.157Z,25.62
2017-04-02T08:56:38.072Z,25.58
2017-04-02T08:57:46.837Z,25.54
2017-04-02T08:58:55.602Z,25.55
2017-04-02T09:00:04.371Z,25.63
2017-04-02T09:01:13.115Z,25.73
2017-04-02T09:02:21.882Z,25.63
2017-04-02T09:03:30.962Z,25.62
2017-04-02T09:04:39.760Z,25.75
2017-04-02T09:05:48.831Z,25.75
2017-04-02T09:06:57.786Z,25.69
2017-04-02T09:08:06.549Z,25.73
2017-04-02T09:09:15.613Z,25.55
2017-04-02T09:10:24.681Z,25.63
2017-04-02T09:11:33.842Z,25.55
2017-04-02T09:12:42.610Z,25.47
2017-04-02T09:13:51.374Z,25.5
2017-04-02T09:15:00.131Z,25.47
2017-04-02T09:16:08.891Z,25.44
2017-04-02T09:17:17.652Z,25.32
2017-04-02T09:18:26.416Z,25.33
2017-04-02T09:19:36.128Z,25.28
2017-04-02T09:20:45.193Z,25.29
2017-04-02T09:21:54.559Z,25.26
2017-04-02T09:23:03.599Z,25.22
2017-04-02T09:24:12.343Z,25.22
2017-04-02T09:25:21.722Z,25.17
2017-04-02T09:26:31.394Z,25.21
2017-04-02T09:27:40.160Z,25.47
2017-04-02T09:28:48.918Z,25.54
2017-04-02T09:29:57.683Z,25.83
2017-04-02T09:31:06.709Z,26.29
2017-04-02T09:32:15.442Z,26.9
2017-04-02T09:33:24.213Z,27.49
2017-04-02T09:34:33.289Z,27.95
2017-04-02T09:35:42.047Z,28.57
2017-04-02T09:36:50.781Z,29.13
2017-04-02T09:37:59.850Z,29.44
2017-04-02T09:39:08.611Z,29.97
2017-04-02T09:40:17.376Z,30.25
2017-04-02T09:41:26.404Z,30.65
2017-04-02T09:42:35.449Z,30.91
2017-04-02T09:43:44.171Z,31.17
2017-04-02T09:44:53.106Z,31.09
2017-04-02T09:46:02.786Z,30.77
2017-04-02T09:47:11.554Z,30.35
2017-04-02T09:48:20.292Z,30.32
2017-04-02T09:49:29.357Z,30.62
2017-04-02T09:50:38.429Z,30.77
2017-04-02T09:51:47.202Z,30.85
2017-04-02T09:52:55.962Z,31.34
2017-04-02T09:54:04.733Z,31.64
2017-04-02T09:55:13.496Z,32.21
2017-04-02T09:56:22.256Z,32.53
2017-04-02T09:57:31.322Z,32.77
2017-04-02T09:58:40.429Z,33.01
2017-04-02T09:59:49.150Z,33.34
2017-04-02T10:00:57.893Z,33.76
2017-04-02T10:02:06.657Z,33.83
2017-04-02T10:03:15.418Z,33.47
2017-04-02T10:04:24.193Z,33.02
2017-04-02T10:05:33.215Z,32.6
2017-04-02T10:06:41.949Z,32.14
2017-04-02T10:07:50.714Z,31.64
2017-04-02T10:08:59.787Z,31.21
2017-04-02T10:10:09.120Z,30.84
2017-04-02T10:11:17.863Z,30.7
2017-04-02T10:12:26.934Z,30.78
2017-04-02T10:13:35.902Z,30.91
2017-04-02T10:14:44.927Z,31.36
2017-04-02T10:15:53.956Z,32.03
2017-04-02T10:17:02.990Z,32.56
2017-04-02T10:18:11.749Z,33.17
2017-04-02T10:19:20.512Z,33.76
2017-04-02T10:20:29.595Z,34.21
2017-04-02T10:21:38.664Z,34.66
2017-04-02T10:22:47.438Z,35.14
2017-04-02T10:23:56.517Z,35.44
2017-04-02T10:25:05.278Z,35.33
2017-04-02T10:26:14.035Z,34.9
2017-04-02T10:27:22.804Z,34.45
2017-04-02T10:28:31.973Z,33.95
2017-04-02T10:29:40.727Z,33.42
2017-04-02T10:30:49.489Z,32.9
2017-04-02T10:31:58.246Z,32.41
2017-04-02T10:33:06.965Z,32.04
2017-04-02T10:34:15.700Z,31.66
2017-04-02T10:35:24.456Z,31.36
2017-04-02T10:36:33.888Z,31.07
2017-04-02T10:37:42.924Z,30.75
2017-04-02T10:38:51.954Z,30.57
2017-04-02T10:40:00.689Z,30.21
2017-04-02T10:41:09.754Z,30
2017-04-02T10:42:18.466Z,29.66
2017-04-02T10:43:27.240Z,29.44
2017-04-02T10:44:36.117Z,29.34
2017-04-02T10:45:45.462Z,29.07
2017-04-02T10:46:54.529Z,28.89
2017-04-02T10:48:03.292Z,28.7
2017-04-02T10:49:12.058Z,28.63
2017-04-02T10:50:20.801Z,28.48
2017-04-02T10:51:29.839Z,28.39
2017-04-02T10:52:39.049Z,28.3
2017-04-02T10:53:47.811Z,28.32
2017-04-02T10:54:56.872Z,28.15
2017-04-02T10:56:05.935Z,28.08
2017-04-02T10:57:15.008Z,28.02
2017-04-02T10:58:23.768Z,27.98
2017-04-02T10:59:32.832Z,28.07
2017-04-02T11:00:41.556Z,28.23
2017-04-02T11:01:50.595Z,28.63
2017-04-02T11:02:59.352Z,29.04
2017-04-02T11:04:08.109Z,29.71
2017-04-02T11:05:16.870Z,30.32
2017-04-02T11:06:25.929Z,30.78
2017-04-02T11:07:34.652Z,30.92
2017-04-02T11:08:43.690Z,31.06
2017-04-02T11:09:52.455Z,30.96
2017-04-02T11:11:01.516Z,30.81
2017-04-02T11:12:10.573Z,30.9
2017-04-02T11:13:19.337Z,31.18
2017-04-02T11:14:28.093Z,31.49
2017-04-02T11:15:36.862Z,31.94
2017-04-02T11:16:45.629Z,32.19
2017-04-02T11:17:54.346Z,32.59
2017-04-02T11:19:03.082Z,33.02
2017-04-02T11:20:11.841Z,33.49
2017-04-02T11:21:20.598Z,33.99
2017-04-02T11:22:29.326Z,34.43
2017-04-02T11:23:38.062Z,34.57
2017-04-02T11:24:46.828Z,34.8
2017-04-02T11:25:55.588Z,35.14
2017-04-02T11:27:04.351Z,35.23
2017-04-02T11:28:13.413Z,35.07
2017-04-02T11:29:22.166Z,34.81
2017-04-02T11:30:30.898Z,34.5
2017-04-02T11:31:39.894Z,34.48
2017-04-02T11:32:48.628Z,34.33
2017-04-02T11:33:57.388Z,34.23
2017-04-02T11:35:06.452Z,33.81
2017-04-02T11:36:15.511Z,33.45
2017-04-02T11:37:24.274Z,33.14
2017-04-02T11:38:33.335Z,32.7
2017-04-02T11:39:42.095Z,32.4
2017-04-02T11:40:50.864Z,32.07
2017-04-02T11:41:59.634Z,31.77
2017-04-02T11:43:08.604Z,31.92
2017-04-02T11:44:17.368Z,32.15
2017-04-02T11:45:26.128Z,32.21
2017-04-02T11:46:35.142Z,32.33
2017-04-02T11:47:43.902Z,32.68
2017-04-02T11:48:52.665Z,32.97
2017-04-02T11:50:01.425Z,33.09
2017-04-02T11:51:10.191Z,33.5
2017-04-02T11:52:18.955Z,33.67
2017-04-02T11:53:27.898Z,33.61
2017-04-02T11:54:36.629Z,33.83
2017-04-02T11:55:45.386Z,34.17
2017-04-02T11:56:54.150Z,34.33
2017-04-02T11:58:02.885Z,34.71
2017-04-02T11:59:11.950Z,34.93
2017-04-02T12:00:20.683Z,35.14
2017-04-02T12:01:29.430Z,35.27
2017-04-02T12:02:38.202Z,35.37
2017-04-02T12:03:46.962Z,35.22
2017-04-02T12:04:55.731Z,34.95
2017-04-02T12:06:04.798Z,34.52
2017-04-02T12:07:13.560Z,34.21
2017-04-02T12:08:22.322Z,33.81
2017-04-02T12:09:31.694Z,33.4
2017-04-02T12:10:40.451Z,33.15
2017-04-02T12:11:49.225Z,32.87
2017-04-02T12:12:57.986Z,32.56
2017-04-02T12:14:06.754Z,32.36
2017-04-02T12:15:15.469Z,32.18
2017-04-02T12:16:24.214Z,31.92
2017-04-02T12:17:32.973Z,31.69
2017-04-02T12:18:42.040Z,31.56
2017-04-02T12:19:51.414Z,31.31
2017-04-02T12:21:00.179Z,31.14
2017-04-02T12:22:08.948Z,31
2017-04-02T12:23:18.010Z,30.8
2017-04-02T12:24:26.812Z,30.81
2017-04-02T12:25:35.776Z,30.68
2017-04-02T12:26:44.847Z,30.59
2017-04-02T12:27:53.621Z,30.44
2017-04-02T12:29:02.665Z,30.23
2017-04-02T12:30:11.401Z,30.12
2017-04-02T12:31:20.173Z,30
2017-04-02T12:32:28.932Z,29.9
2017-04-02T12:33:37.807Z,29.76
2017-04-02T12:34:46.852Z,29.59
2017-04-02T12:35:56.076Z,29.44
2017-04-02T12:37:04.773Z,29.49
2017-04-02T12:38:13.505Z,29.29
2017-04-02T12:39:22.255Z,29.26
2017-04-02T12:40:30.976Z,29.17
2017-04-02T12:41:39.667Z,29.1
2017-04-02T12:42:48.396Z,29.02
2017-04-02T12:43:57.117Z,28.94
2017-04-02T12:45:05.885Z,28.89
2017-04-02T12:46:14.641Z,28.82
2017-04-02T12:47:23.361Z,28.67
2017-04-02T12:48:32.103Z,28.57
2017-04-02T12:49:41.168Z,28.49
2017-04-02T12:50:49.928Z,28.41
2017-04-02T12:51:58.726Z,28.27
2017-04-02T12:53:07.487Z,28.14
2017-04-02T12:54:16.253Z,28.01
2017-04-02T12:55:25.322Z,27.96
2017-04-02T12:56:34.089Z,27.89
2017-04-02T12:57:42.849Z,27.74
2017-04-02T12:58:51.910Z,27.71
2017-04-02T13:00:00.649Z,27.64
2017-04-02T13:01:09.410Z,27.64
2017-04-02T13:02:18.166Z,27.59
2017-04-02T13:03:26.926Z,27.51
2017-04-02T13:04:35.686Z,27.48
2017-04-02T13:05:44.440Z,27.4
2017-04-02T13:06:53.207Z,27.27
2017-04-02T13:08:02.233Z,27.39
2017-04-02T13:09:11.285Z,27.37
2017-04-02T13:10:20.059Z,27.35
2017-04-02T13:11:28.833Z,27.36
2017-04-02T13:12:37.915Z,27.25
2017-04-02T13:13:46.867Z,27.3
2017-04-02T13:14:55.637Z,27.27
2017-04-02T13:16:05.331Z,27.36
2017-04-02T13:17:14.699Z,27.18
2017-04-02T13:18:23.464Z,27.25
2017-04-02T13:19:32.521Z,27.14
2017-04-02T13:20:41.277Z,27.2
2017-04-02T13:21:50.044Z,27.18
2017-04-02T13:22:59.110Z,27.12
2017-04-02T13:24:08.174Z,27.05
2017-04-02T13:25:16.929Z,27.11
2017-04-02T13:26:25.679Z,26.99
2017-04-02T13:27:34.443Z,27.03
2017-04-02T13:28:43.293Z,26.96
2017-04-02T13:29:52.057Z,27
2017-04-02T13:31:01.125Z,27
2017-04-02T13:32:09.888Z,26.85
2017-04-02T13:33:18.933Z,26.88
2017-04-02T13:34:27.679Z,26.93
2017-04-02T13:35:36.732Z,26.77
2017-04-02T13:36:45.793Z,26.8
2017-04-02T13:37:54.851Z,26.81
2017-04-02T13:39:03.606Z,26.81
2017-04-02T13:40:12.373Z,26.71
2017-04-02T13:41:21.329Z,26.63
2017-04-02T13:42:30.053Z,26.66
2017-04-02T13:43:38.744Z,26.6
2017-04-02T13:44:47.484Z,26.68
2017-04-02T13:45:56.239Z,26.6
2017-04-02T13:47:05.005Z,26.51
2017-04-02T13:48:13.760Z,26.47
2017-04-02T13:49:22.522Z,26.47
2017-04-02T13:50:31.247Z,26.43
2017-04-02T13:51:40.142Z,26.34
2017-04-02T13:52:49.178Z,26.34
2017-04-02T13:53:57.936Z,26.31
2017-04-02T13:55:07.336Z,26.31
2017-04-02T13:56:16.098Z,26.18
2017-04-02T13:57:24.852Z,26.21
2017-04-02T13:58:33.604Z,26.22
2017-04-02T13:59:42.364Z,26.22
2017-04-02T14:00:51.460Z,26.19
2017-04-02T14:02:00.226Z,26.16
2017-04-02T14:03:08.983Z,26.21
2017-04-02T14:04:17.742Z,26.19
2017-04-02T14:05:26.807Z,26.03
2017-04-02T14:06:35.605Z,26.09
2017-04-02T14:07:44.333Z,26.1
2017-04-02T14:08:53.066Z,26.05
2017-04-02T14:10:02.137Z,25.98
2017-04-02T14:11:11.206Z,25.93
2017-04-02T14:12:19.943Z,25.98
2017-04-02T14:13:28.994Z,25.9
2017-04-02T14:14:37.755Z,25.87
2017-04-02T14:15:46.824Z,25.81
2017-04-02T14:16:55.581Z,25.83
2017-04-02T14:18:04.645Z,25.93
2017-04-02T14:19:13.406Z,25.84
2017-04-02T14:20:22.171Z,25.78
2017-04-02T14:21:30.928Z,25.78
2017-04-02T14:22:40.024Z,25.75
2017-04-02T14:23:49.039Z,25.75
2017-04-02T14:24:57.769Z,25.78
2017-04-02T14:26:06.496Z,25.78
2017-04-02T14:27:15.533Z,25.75
2017-04-02T14:28:24.564Z,25.73
2017-04-02T14:29:33.304Z,25.62
2017-04-02T14:30:42.067Z,25.65
2017-04-02T14:31:50.846Z,25.78
2017-04-02T14:32:59.575Z,25.68
2017-04-02T14:34:08.607Z,25.73
2017-04-02T14:35:17.676Z,25.55
2017-04-02T14:36:26.742Z,25.53
2017-04-02T14:37:35.508Z,25.58
2017-04-02T14:38:44.267Z,25.54
2017-04-02T14:39:53.018Z,25.55
2017-04-02T14:41:01.776Z,25.59
2017-04-02T14:42:10.536Z,25.54
2017-04-02T14:43:19.298Z,25.5
2017-04-02T14:44:28.053Z,25.48
2017-04-02T14:45:36.862Z,25.51
2017-04-02T14:46:45.925Z,25.43
2017-04-02T14:47:54.683Z,25.53
2017-04-02T14:49:03.440Z,25.43
2017-04-02T14:50:12.168Z,25.41
2017-04-02T14:51:20.860Z,25.41